Time;durP1;ratioP1;P1;durP2;ratioP2;P2;SDS_P1;SDS_P2;PMS_P1;PMS_P2;Temp;Humidity;BMP_temperature;BMP_pressure;BME280_temperature;BME280_humidity;BME280_pressure;Samples;Min_cycle;Max_cycle;Signal;HPM_P1;HPM_P2
2021/01/31 00:00:16;;;;;;;8.95;6.85;;;;;;;5.79;71.93;98774.84;5114589;28;20411;-63
2021/01/31 00:02:41;;;;;;;12.15;7.90;;;;;;;5.81;71.64;98778.03;5114658;28;20024;-63
2021/01/31 00:05:07;;;;;;;9.20;6.38;;;;;;;5.81;71.51;98786.38;5113101;28;20462;-63
2021/01/31 00:07:32;;;;;;;10.57;7.78;;;;;;;5.80;71.86;98793.16;5094888;28;20034;-63
2021/01/31 00:09:58;;;;;;;13.52;8.80;;;;;;;5.79;71.50;98790.78;5113473;28;20103;-63
2021/01/31 00:12:23;;;;;;;8.80;7.78;;;;;;;5.78;71.72;98795.56;5112583;28;20078;-63
2021/01/31 00:14:48;;;;;;;12.90;8.43;;;;;;;5.79;71.43;98796.38;5112134;28;20023;-63
2021/01/31 00:17:14;;;;;;;14.82;9.13;;;;;;;5.76;71.65;98802.75;5081469;28;20027;-63
2021/01/31 00:19:39;;;;;;;13.85;10.63;;;;;;;5.73;71.75;98792.41;5115260;28;20063;-63
2021/01/31 00:22:04;;;;;;;12.25;8.88;;;;;;;5.69;71.89;98797.22;5108215;28;20345;-63
2021/01/31 00:24:30;;;;;;;27.95;14.73;;;;;;;5.68;71.90;98790.84;5101429;28;20020;-63
2021/01/31 00:26:56;;;;;;;35.83;17.52;;;;;;;5.69;71.93;98795.22;5111692;28;20024;-63
2021/01/31 00:29:21;;;;;;;32.15;16.27;;;;;;;5.71;71.67;98800.38;5115625;28;20034;-63
2021/01/31 00:31:47;;;;;;;21.98;11.02;;;;;;;5.70;71.68;98807.97;5115622;28;20160;-63
2021/01/31 00:34:15;;;;;;;25.65;12.85;;;;;;;5.69;71.72;98803.59;5105727;28;20031;-63
2021/01/31 00:36:40;;;;;;;20.40;10.80;;;;;;;5.70;71.76;98818.31;5117052;28;20027;-63
2021/01/31 00:39:07;;;;;;;23.60;9.95;;;;;;;5.71;71.16;98817.91;5119873;28;20034;-63
2021/01/31 00:41:33;;;;;;;17.88;9.40;;;;;;;5.77;70.45;98821.06;5119375;28;20129;-63
2021/01/31 00:43:58;;;;;;;33.50;14.20;;;;;;;5.78;70.11;98829.03;5108665;28;20032;-63
2021/01/31 00:46:24;;;;;;;22.77;11.70;;;;;;;5.79;70.07;98841.75;5119281;28;20054;-63
2021/01/31 00:48:49;;;;;;;22.98;9.88;;;;;;;5.75;70.19;98841.00;5119303;28;20160;-63
2021/01/31 00:51:14;;;;;;;27.95;12.95;;;;;;;5.76;70.42;98841.78;5089856;28;20390;-63
2021/01/31 00:53:40;;;;;;;20.95;11.90;;;;;;;5.73;70.35;98837.81;5116516;28;20027;-63
2021/01/31 00:56:05;;;;;;;17.67;10.05;;;;;;;5.70;70.54;98840.59;5116284;28;20852;-63
2021/01/31 00:58:30;;;;;;;15.52;9.88;;;;;;;5.67;70.51;98839.44;5103375;28;20028;-63
2021/01/31 01:00:56;;;;;;;20.08;11.02;;;;;;;5.66;70.69;98837.84;5114650;28;20030;-63
2021/01/31 01:03:21;;;;;;;17.15;10.40;;;;;;;5.62;71.11;98839.88;5111976;28;20073;-63
2021/01/31 01:05:46;;;;;;;14.95;8.32;;;;;;;5.62;71.50;98830.72;5119249;28;20030;-63
2021/01/31 01:08:12;;;;;;;18.85;9.10;;;;;;;5.60;71.52;98831.13;5095228;28;20284;-63
2021/01/31 01:10:37;;;;;;;15.75;9.38;;;;;;;5.62;72.16;98831.50;5118819;28;20026;-63
2021/01/31 01:13:04;;;;;;;11.85;8.52;;;;;;;5.59;71.71;98830.31;5119132;28;20027;-63
2021/01/31 01:15:30;;;;;;;12.35;8.20;;;;;;;5.58;72.43;98836.31;5118658;28;20020;-64
2021/01/31 01:17:56;;;;;;;15.70;8.75;;;;;;;5.55;72.85;98837.13;5118791;28;20031;-62
2021/01/31 01:20:22;;;;;;;12.65;8.48;;;;;;;5.52;73.09;98835.16;5118951;28;20418;-63
2021/01/31 01:22:48;;;;;;;15.77;10.00;;;;;;;5.59;73.09;98854.63;5118689;28;20055;-63
2021/01/31 01:25:16;;;;;;;23.85;15.57;;;;;;;5.56;72.28;98844.28;5118665;28;20018;-63
2021/01/31 01:27:41;;;;;;;46.88;20.42;;;;;;;5.54;71.21;98835.53;5112890;28;20411;-63
2021/01/31 01:30:10;;;;;;;34.70;20.38;;;;;;;5.34;70.18;98831.66;5118685;28;20064;-63
2021/01/31 01:32:37;;;;;;;32.45;18.90;;;;;;;5.14;71.21;98836.91;5118259;28;20406;-64
2021/01/31 01:35:04;;;;;;;37.42;20.73;;;;;;;4.79;70.94;98846.16;5118606;28;20375;-64
2021/01/31 01:37:29;;;;;;;41.10;20.92;;;;;;;4.55;72.09;98845.81;5100637;28;20030;-64
2021/01/31 01:39:54;;;;;;;41.58;22.20;;;;;;;4.42;72.70;98847.44;5118356;28;20102;-66
2021/01/31 01:42:19;;;;;;;38.85;21.20;;;;;;;4.27;73.09;98854.19;5118816;28;20357;-63
2021/01/31 01:44:45;;;;;;;38.15;22.27;;;;;;;4.17;73.45;98855.00;5118663;28;20110;-64
2021/01/31 01:47:17;;;;;;;39.35;23.73;;;;;;;4.04;73.56;98855.38;5098949;28;20092;-63
2021/01/31 01:49:45;;;;;;;41.83;22.25;;;;;;;3.98;74.76;98864.50;5118553;28;20072;-63
2021/01/31 01:52:22;;;;;;;34.03;20.17;;;;;;;3.82;74.87;98869.63;5103691;28;20073;-63
2021/01/31 01:55:01;;;;;;;41.60;22.30;;;;;;;3.70;74.55;98873.59;5110937;28;20031;-64
2021/01/31 01:57:33;;;;;;;40.70;22.45;;;;;;;3.69;74.67;98869.22;5118129;28;20054;-63
2021/01/31 01:59:59;;;;;;;41.80;22.42;;;;;;;3.65;74.08;98872.00;5118193;28;20019;-63
2021/01/31 02:02:30;;;;;;;42.30;22.38;;;;;;;3.65;74.20;98879.53;5117836;28;20315;-63
2021/01/31 02:05:00;;;;;;;35.47;21.33;;;;;;;3.54;74.74;98885.03;5088071;28;20384;-63
2021/01/31 02:07:25;;;;;;;41.80;23.35;;;;;;;3.44;75.47;98885.00;5116209;28;20019;-63
2021/01/31 02:09:51;;;;;;;39.78;22.17;;;;;;;3.48;74.99;98880.25;5118117;28;20030;-63
2021/01/31 02:12:23;;;;;;;37.28;22.42;;;;;;;3.43;74.25;98878.66;5117663;28;20292;-63
2021/01/31 02:14:50;;;;;;;38.40;22.13;;;;;;;3.29;74.99;98890.53;5117838;28;20027;-63
2021/01/31 02:17:44;;;;;;;40.88;23.27;;;;;;;3.22;75.08;98893.25;5117385;28;20030;-63
2021/01/31 02:20:47;;;;;;;38.63;23.30;;;;;;;3.11;74.54;98889.63;5099844;28;20020;-63
2021/01/31 02:23:40;;;;;;;45.88;23.70;;;;;;;2.91;75.45;98896.66;5094313;28;20016;-65
2021/01/31 02:26:09;;;;;;;39.92;22.38;;;;;;;2.74;76.27;98904.50;5117483;28;20027;-66
2021/01/31 02:29:12;;;;;;;36.38;21.95;;;;;;;2.66;77.05;98899.28;5117676;28;20028;-65
2021/01/31 02:31:37;;;;;;;44.72;24.40;;;;;;;2.61;77.53;98894.09;5117011;28;20034;-63
2021/01/31 02:34:40;;;;;;;39.38;22.20;;;;;;;2.69;75.82;98902.06;5117621;28;20027;-64
2021/01/31 02:37:11;;;;;;;40.10;22.42;;;;;;;2.63;75.66;98900.84;5090796;28;20111;-64
2021/01/31 02:39:43;;;;;;;40.20;21.20;;;;;;;2.58;75.21;98901.22;5099536;28;20034;-64
2021/01/31 02:42:23;;;;;;;37.20;21.13;;;;;;;2.48;75.52;98913.81;5117170;28;20102;-63
2021/01/31 02:45:02;;;;;;;36.03;20.20;;;;;;;2.50;75.27;98918.97;5117087;28;20099;-62
2021/01/31 02:47:31;;;;;;;43.88;22.52;;;;;;;2.39;75.17;98918.09;5095693;28;20320;-62
2021/01/31 02:50:04;;;;;;;36.55;19.88;;;;;;;2.30;76.18;98906.53;5095164;28;20043;-62
2021/01/31 02:52:38;;;;;;;35.00;20.23;;;;;;;2.23;76.30;98912.03;5070975;28;20099;-62
2021/01/31 02:55:09;;;;;;;35.00;19.85;;;;;;;2.10;76.60;98920.59;5076248;28;20016;-64
2021/01/31 02:57:43;;;;;;;33.65;20.38;;;;;;;2.07;76.78;98924.16;5076150;28;20434;-62
2021/01/31 03:00:20;;;;;;;37.28;21.00;;;;;;;2.07;76.72;98926.91;5076171;28;20032;-62
2021/01/31 03:02:55;;;;;;;36.70;20.27;;;;;;;2.00;76.98;98926.84;5076302;28;20042;-62
2021/01/31 03:05:29;;;;;;;37.33;20.75;;;;;;;2.14;76.18;98926.97;5076103;28;20025;-63
2021/01/31 03:08:01;;;;;;;34.90;20.23;;;;;;;2.03;76.91;98934.41;5075968;28;20020;-63
2021/01/31 03:10:35;;;;;;;33.78;19.30;;;;;;;2.00;76.56;98942.69;5075895;28;20081;-63
2021/01/31 03:13:07;;;;;;;37.50;20.17;;;;;;;1.81;77.60;98947.22;5076106;28;20017;-63
2021/01/31 03:15:42;;;;;;;39.45;21.27;;;;;;;1.82;77.94;98953.56;5075771;28;20025;-63
2021/01/31 03:18:12;;;;;;;39.17;20.50;;;;;;;1.73;78.32;98953.06;5075952;28;20029;-64
2021/01/31 03:20:41;;;;;;;37.38;21.50;;;;;;;1.64;78.75;98958.09;5075999;28;20107;-63
2021/01/31 03:23:21;;;;;;;39.80;20.60;;;;;;;1.51;78.64;98961.13;5075753;28;20167;-65
2021/01/31 03:25:55;;;;;;;38.65;20.30;;;;;;;1.55;79.44;98967.50;5074701;28;20028;-64
2021/01/31 03:28:20;;;;;;;38.40;20.63;;;;;;;1.59;79.13;98977.81;5075322;28;20020;-64
2021/01/31 03:30:47;;;;;;;36.65;19.23;;;;;;;1.67;78.43;98985.84;5076029;28;20040;-63
2021/01/31 03:33:20;;;;;;;39.25;21.17;;;;;;;1.63;78.19;98995.28;5075631;28;20047;-64
2021/01/31 03:35:51;;;;;;;36.35;19.90;;;;;;;1.66;77.56;99000.09;5075755;28;20024;-64
2021/01/31 03:38:29;;;;;;;36.63;19.33;;;;;;;1.64;76.72;99007.94;5075754;28;20713;-64
2021/01/31 03:41:01;;;;;;;35.60;19.48;;;;;;;1.61;76.95;99014.25;5075616;28;20025;-63
2021/01/31 03:43:27;;;;;;;36.00;19.70;;;;;;;1.55;76.85;99009.03;5075395;28;20043;-64
2021/01/31 03:45:58;;;;;;;36.83;19.73;;;;;;;1.51;77.06;99012.94;5075826;28;20109;-64
2021/01/31 03:48:28;;;;;;;35.22;18.98;;;;;;;1.39;77.50;99011.22;5093991;28;20059;-63
2021/01/31 03:50:54;;;;;;;39.28;21.67;;;;;;;1.41;77.96;99016.38;5095938;28;20477;-63
2021/01/31 03:53:19;;;;;;;33.88;18.02;;;;;;;1.40;77.80;99015.56;5095770;28;20326;-63
2021/01/31 03:55:45;;;;;;;37.58;19.27;;;;;;;1.32;78.32;99019.41;5095290;28;20016;-63
2021/01/31 03:58:15;;;;;;;37.05;21.10;;;;;;;1.34;78.98;99021.78;5095641;28;20032;-63
2021/01/31 04:00:51;;;;;;;39.10;21.02;;;;;;;1.33;78.70;99025.72;5095437;28;20028;-63
2021/01/31 04:03:24;;;;;;;41.63;23.50;;;;;;;1.28;79.02;99023.28;5095720;28;20423;-62
2021/01/31 04:05:57;;;;;;;38.42;20.80;;;;;;;1.30;79.38;99020.94;5095501;28;20323;-62
2021/01/31 04:08:23;;;;;;;36.22;19.30;;;;;;;1.31;79.11;99026.09;5095358;28;20427;-63
2021/01/31 04:10:48;;;;;;;36.35;20.27;;;;;;;1.34;78.84;99024.56;5094879;28;20020;-62
2021/01/31 04:13:14;;;;;;;33.95;19.38;;;;;;;1.22;78.96;99026.38;5095447;28;20020;-63
2021/01/31 04:15:41;;;;;;;37.50;21.77;;;;;;;1.30;79.16;99016.22;5095256;28;20024;-62
2021/01/31 04:18:08;;;;;;;41.95;21.90;;;;;;;1.30;79.05;99032.81;5095503;28;20028;-62
2021/01/31 04:20:34;;;;;;;36.30;20.30;;;;;;;1.23;79.30;99027.97;5095679;28;20032;-63
2021/01/31 04:23:00;;;;;;;36.33;20.33;;;;;;;1.20;79.35;99039.81;5095254;28;20023;-62
2021/01/31 04:25:26;;;;;;;36.30;20.45;;;;;;;1.16;79.67;99040.94;5095291;28;20067;-63
2021/01/31 04:27:52;;;;;;;35.45;19.63;;;;;;;1.12;79.64;99037.31;5095434;28;20032;-64
2021/01/31 04:30:17;;;;;;;36.80;20.38;;;;;;;1.18;80.28;99047.69;5095457;28;20368;-63
2021/01/31 04:32:42;;;;;;;38.40;19.88;;;;;;;1.23;79.50;99046.56;5095379;28;20527;-63
2021/01/31 04:35:09;;;;;;;36.47;20.20;;;;;;;1.17;78.70;99040.56;5095172;28;20020;-62
2021/01/31 04:37:35;;;;;;;34.58;19.65;;;;;;;1.11;78.91;99041.25;5095256;28;20066;-63
2021/01/31 04:40:00;;;;;;;36.15;19.52;;;;;;;1.15;78.81;99048.44;5094974;28;20055;-63
2021/01/31 04:42:26;;;;;;;28.90;16.75;;;;;;;1.09;78.30;99046.31;5095293;28;20568;-62
2021/01/31 04:44:51;;;;;;;34.25;18.77;;;;;;;1.06;78.99;99049.84;5077315;28;20023;-62
2021/01/31 04:47:28;;;;;;;35.60;18.08;;;;;;;1.08;78.66;99050.28;5095023;28;20327;-63
2021/01/31 04:50:03;;;;;;;32.28;18.30;;;;;;;0.93;78.40;99057.56;5095449;28;20375;-64
2021/01/31 04:52:54;;;;;;;37.55;19.85;;;;;;;0.89;79.51;99051.19;5095027;28;20099;-64
2021/01/31 04:55:34;;;;;;;33.28;19.10;;;;;;;0.88;79.46;99044.84;5094604;28;20365;-64
2021/01/31 04:58:12;;;;;;;37.30;19.02;;;;;;;0.91;79.28;99052.41;5095118;28;20032;-64
2021/01/31 05:00:47;;;;;;;33.78;18.50;;;;;;;0.83;79.82;99055.44;5095062;28;20024;-64
2021/01/31 05:03:13;;;;;;;32.22;18.73;;;;;;;0.88;80.38;99061.44;5095107;28;20035;-64
2021/01/31 05:05:53;;;;;;;38.15;19.98;;;;;;;0.85;80.12;99073.25;5094877;28;20099;-62
2021/01/31 05:08:30;;;;;;;31.17;17.67;;;;;;;0.82;80.04;99068.47;5094808;28;20471;-62
2021/01/31 05:11:18;;;;;;;37.03;20.08;;;;;;;0.82;80.33;99074.00;5094659;28;20063;-62
2021/01/31 05:13:49;;;;;;;34.00;18.90;;;;;;;0.83;80.12;99072.81;5069520;28;20383;-63
2021/01/31 05:16:16;;;;;;;;;;;;;;;0.86;79.97;99074.06;5095423;28;20016;-63
2021/01/31 05:18:49;;;;;;;37.47;18.50;;;;;;;0.80;80.46;99076.31;5094949;28;19915;-63
2021/01/31 05:21:18;;;;;;;33.63;18.08;;;;;;;0.74;80.80;99071.44;5094978;28;20063;-63
2021/01/31 05:23:56;;;;;;;33.50;17.85;;;;;;;0.79;80.08;99069.16;5098574;28;20032;-62
2021/01/31 05:26:21;;;;;;;34.10;18.75;;;;;;;0.79;80.08;99060.88;5098042;28;20050;-63
2021/01/31 05:29:00;;;;;;;34.88;18.73;;;;;;;0.82;80.35;99065.69;5098535;28;20415;-63
2021/01/31 05:31:29;;;;;;;31.85;18.30;;;;;;;0.91;78.92;99065.44;5098066;28;20024;-63
2021/01/31 05:33:58;;;;;;;35.80;18.45;;;;;;;0.81;79.70;99072.38;5098368;28;20016;-65
2021/01/31 05:36:32;;;;;;;37.42;19.25;;;;;;;0.82;79.68;99068.47;5098040;28;20016;-64
2021/01/31 05:38:58;;;;;;;35.92;18.83;;;;;;;0.81;79.34;99061.31;5097990;28;20032;-65
2021/01/31 05:41:32;;;;;;;34.95;19.13;;;;;;;0.76;79.62;99058.84;5098008;28;20077;-65
2021/01/31 05:44:14;;;;;;;35.75;19.63;;;;;;;0.85;79.19;99073.25;5098346;28;20043;-64
2021/01/31 05:46:41;;;;;;;;;;;;;;;0.72;79.67;99080.13;5098122;28;20079;-63
2021/01/31 05:49:28;;;;;;;39.45;19.75;;;;;;;0.71;79.49;99080.50;5098188;28;20321;-64
2021/01/31 05:51:55;;;;;;;40.63;22.15;;;;;;;0.79;79.10;99099.59;5097932;28;20028;-65
2021/01/31 05:54:32;;;;;;;44.28;25.08;;;;;;;0.68;79.26;99101.38;5097753;28;20028;-65
2021/01/31 05:56:57;;;;;;;35.75;20.25;;;;;;;0.58;79.61;99110.31;5097848;28;20023;-64
2021/01/31 05:59:23;;;;;;;39.78;21.35;;;;;;;0.59;79.84;99111.91;5097718;28;20043;-63
2021/01/31 06:02:01;;;;;;;41.38;22.08;;;;;;;0.64;79.08;99117.13;5097937;28;20046;-63
2021/01/31 06:04:27;;;;;;;43.67;23.23;;;;;;;0.65;79.62;99117.91;5097596;28;20069;-64
2021/01/31 06:07:03;;;;;;;41.88;21.63;;;;;;;0.60;79.62;99119.81;5079830;28;20092;-64
2021/01/31 06:09:39;;;;;;;44.53;21.40;;;;;;;0.58;79.37;99126.88;5096862;28;20027;-64
2021/01/31 06:12:13;;;;;;;48.90;25.90;;;;;;;0.60;79.32;99127.31;5097630;28;20043;-63
2021/01/31 06:14:43;;;;;;;41.63;22.65;;;;;;;0.56;79.23;99138.31;5097073;28;20069;-63
2021/01/31 06:17:29;;;;;;;46.03;23.50;;;;;;;0.54;79.52;99145.34;5097629;28;20332;-64
2021/01/31 06:20:13;;;;;;;41.65;21.70;;;;;;;0.57;80.09;99150.19;5097218;28;20071;-63
2021/01/31 06:22:43;;;;;;;46.42;23.58;;;;;;;0.56;80.03;99159.63;5097266;28;20285;-65
2021/01/31 06:25:34;;;;;;;48.00;21.70;;;;;;;0.54;80.33;99154.44;5097142;28;20023;-63
2021/01/31 06:28:08;;;;;;;35.20;20.00;;;;;;;0.58;79.86;99162.84;5089674;28;20054;-65
2021/01/31 06:30:35;;;;;;;37.45;19.40;;;;;;;0.55;80.13;99163.56;5096984;28;20020;-65
2021/01/31 06:33:00;;;;;;;32.42;17.45;;;;;;;0.59;79.81;99156.94;5096660;28;20327;-65
2021/01/31 06:35:26;;;;;;;35.40;19.08;;;;;;;0.63;79.76;99164.50;5079138;28;20047;-64
2021/01/31 06:38:26;;;;;;;35.28;19.55;;;;;;;0.65;79.54;99162.16;5096857;28;20020;-63
2021/01/31 06:41:03;;;;;;;35.30;16.50;;;;;;;0.58;79.23;99151.78;5087291;28;20319;-63
2021/01/31 06:43:52;;;;;;;31.85;15.82;;;;;;;0.58;79.06;99152.56;5096788;28;20024;-64
2021/01/31 06:46:37;;;;;;;32.88;17.42;;;;;;;0.60;79.07;99154.97;5096686;28;20024;-65
2021/01/31 06:49:20;;;;;;;33.33;18.13;;;;;;;0.55;78.37;99163.56;5084414;28;20398;-64
2021/01/31 06:51:50;;;;;;;34.45;18.20;;;;;;;0.58;79.28;99160.88;5096497;28;20099;-65
2021/01/31 06:54:43;;;;;;;32.85;18.63;;;;;;;0.60;78.33;99172.38;5096724;28;20359;-64
2021/01/31 06:57:36;;;;;;;32.10;17.02;;;;;;;0.58;79.08;99179.44;5096612;28;20019;-66
2021/01/31 07:00:07;;;;;;;32.03;17.60;;;;;;;0.57;79.00;99173.09;5096592;28;20057;-63
2021/01/31 07:03:14;;;;;;;37.08;19.90;;;;;;;0.52;79.33;99173.38;5096591;28;20035;-63
2021/01/31 07:06:01;;;;;;;38.42;21.25;;;;;;;0.52;80.17;99167.84;5065468;28;20083;-64
2021/01/31 07:08:32;;;;;;;31.10;18.60;;;;;;;0.61;79.15;99175.94;5078324;28;20034;-64
2021/01/31 07:11:10;;;;;;;43.50;23.52;;;;;;;0.68;78.92;99167.75;5096337;28;20102;-64
2021/01/31 07:13:56;;;;;;;42.30;21.02;;;;;;;0.70;79.08;99175.69;5078163;28;20369;-64
2021/01/31 07:16:34;;;;;;;40.80;21.25;;;;;;;0.66;78.89;99159.03;5078097;28;20027;-63
2021/01/31 07:19:02;;;;;;;36.40;20.65;;;;;;;0.66;79.05;99159.03;5096117;28;20073;-63
2021/01/31 07:21:44;;;;;;;36.85;19.27;;;;;;;0.68;79.39;99166.97;5096172;28;20027;-63
2021/01/31 07:24:19;;;;;;;36.20;19.13;;;;;;;0.67;79.17;99163.41;5096029;28;20020;-62
2021/01/31 07:27:00;;;;;;;34.00;19.67;;;;;;;0.69;79.32;99169.34;5096216;28;20055;-63
2021/01/31 07:29:40;;;;;;;36.80;20.13;;;;;;;0.76;79.25;99175.00;5095838;28;20085;-63
2021/01/31 07:32:10;;;;;;;38.33;19.48;;;;;;;0.76;79.14;99197.13;5078236;28;20023;-64
2021/01/31 07:34:47;;;;;;;34.13;19.40;;;;;;;0.80;78.21;99189.69;5077546;28;20020;-62
2021/01/31 07:37:18;;;;;;;39.55;21.10;;;;;;;0.78;78.66;99189.28;5096241;28;20023;-62
2021/01/31 07:39:46;;;;;;;37.42;19.45;;;;;;;0.80;78.21;99186.13;5095799;28;20031;-62
2021/01/31 07:42:15;;;;;;;40.20;20.30;;;;;;;0.83;78.00;99190.97;5096433;28;20077;-63
2021/01/31 07:44:43;;;;;;;35.72;19.60;;;;;;;0.83;78.08;99186.22;5095146;28;20078;-65
2021/01/31 07:47:09;;;;;;;34.45;18.23;;;;;;;0.88;77.29;99194.22;5095788;28;20040;-62
2021/01/31 07:49:56;;;;;;;37.88;19.63;;;;;;;0.85;77.01;99191.41;5095523;28;20035;-62
2021/01/31 07:52:42;;;;;;;42.00;21.98;;;;;;;0.78;77.94;99200.34;5082714;28;20016;-63
2021/01/31 07:55:25;;;;;;;40.55;19.83;;;;;;;0.89;77.25;99190.28;5095470;28;20060;-66
2021/01/31 07:58:04;;;;;;;31.45;17.95;;;;;;;0.95;75.90;99189.97;5095393;28;20077;-63
2021/01/31 08:00:40;;;;;;;37.72;20.25;;;;;;;0.95;75.86;99187.22;5095548;28;20034;-63
2021/01/31 08:03:18;;;;;;;46.67;20.00;;;;;;;0.93;75.97;99185.63;5061445;28;20069;-63
2021/01/31 08:06:16;;;;;;;38.83;20.50;;;;;;;0.93;75.93;99180.09;5095525;28;20023;-66
2021/01/31 08:08:47;;;;;;;47.38;23.85;;;;;;;0.90;75.65;99185.56;5095483;28;20099;-63
2021/01/31 08:11:38;;;;;;;63.55;30.80;;;;;;;0.86;76.29;99174.44;5095743;28;20020;-64
2021/01/31 08:14:07;;;;;;;50.60;25.47;;;;;;;0.90;76.04;99183.59;5095684;28;20031;-64
2021/01/31 08:16:54;;;;;;;40.88;22.52;;;;;;;0.98;75.43;99180.94;5094285;28;20024;-65
2021/01/31 08:19:19;;;;;;;43.40;22.75;;;;;;;0.95;76.04;99178.91;5090089;28;20241;-65
2021/01/31 08:21:58;;;;;;;40.00;21.70;;;;;;;0.99;75.87;99179.78;5095441;28;20030;-63
2021/01/31 08:25:01;;;;;;;42.28;22.20;;;;;;;1.02;75.55;99184.56;5089877;28;20016;-64
2021/01/31 08:27:38;;;;;;;64.00;34.20;;;;;;;0.99;75.75;99190.84;5095132;28;20028;-63
2021/01/31 08:30:30;;;;;;;51.03;29.58;;;;;;;1.00;75.72;99189.69;5085196;28;20040;-64
2021/01/31 08:33:02;;;;;;;45.05;24.45;;;;;;;1.00;76.37;99195.22;5089431;28;20411;-64
2021/01/31 08:35:42;;;;;;;42.50;22.05;;;;;;;0.97;76.12;99205.03;5093163;28;20030;-64
2021/01/31 08:38:13;;;;;;;40.88;23.65;;;;;;;0.99;76.21;99196.38;5093173;28;20027;-64
2021/01/31 08:40:40;;;;;;;44.85;23.58;;;;;;;1.00;75.89;99206.28;5094268;28;20034;-63
2021/01/31 08:43:10;;;;;;;39.55;20.33;;;;;;;1.09;75.01;99204.06;5094033;28;20114;-64
2021/01/31 08:45:45;;;;;;;37.03;20.17;;;;;;;1.14;75.31;99192.72;5092655;28;20048;-62
2021/01/31 08:48:23;;;;;;;39.67;20.50;;;;;;;1.13;75.45;99183.59;5093693;28;20153;-64
2021/01/31 08:51:20;;;;;;;38.20;19.60;;;;;;;1.16;74.80;99199.47;5094490;28;20043;-63
2021/01/31 08:54:08;;;;;;;36.05;19.73;;;;;;;1.24;73.62;99197.63;5069765;28;20060;-63
2021/01/31 08:56:39;;;;;;;37.63;18.70;;;;;;;1.25;73.44;99199.22;5097102;28;20046;-64
2021/01/31 08:59:06;;;;;;;36.20;19.13;;;;;;;1.29;73.60;99186.22;5088874;28;20378;-64
2021/01/31 09:01:59;;;;;;;36.60;18.10;;;;;;;1.28;72.38;99184.63;5098806;28;20020;-64
2021/01/31 09:04:26;;;;;;;38.50;21.05;;;;;;;1.27;73.33;99182.25;5098789;28;20019;-64
2021/01/31 09:06:53;;;;;;;40.72;19.90;;;;;;;1.27;72.83;99183.03;5080917;28;20020;-63
2021/01/31 09:09:23;;;;;;;39.72;19.30;;;;;;;1.27;72.76;99198.84;5098583;28;20028;-64
2021/01/31 09:11:54;;;;;;;35.83;19.57;;;;;;;1.22;72.67;99191.66;5098945;28;20059;-64
2021/01/31 09:14:23;;;;;;;35.47;18.92;;;;;;;1.22;72.59;99200.75;5097831;28;20085;-63
2021/01/31 09:16:49;;;;;;;41.53;20.63;;;;;;;1.31;72.00;99200.50;5097984;28;20088;-63
2021/01/31 09:19:23;;;;;;;60.00;25.67;;;;;;;1.35;72.12;99209.66;5098289;28;20024;-65
2021/01/31 09:21:53;;;;;;;58.90;27.77;;;;;;;1.36;73.45;99214.03;5079891;28;20023;-63
2021/01/31 09:24:20;;;;;;;40.60;22.38;;;;;;;1.42;73.77;99222.84;5097486;28;20030;-65
2021/01/31 09:26:51;;;;;;;36.00;21.80;;;;;;;1.43;71.91;99218.91;5096037;28;20031;-64
2021/01/31 09:29:21;;;;;;;41.78;21.45;;;;;;;1.44;71.86;99214.97;5088849;28;20123;-60
2021/01/31 09:31:53;;;;;;;37.22;19.20;;;;;;;1.52;71.39;99223.00;5097645;28;20023;-63
2021/01/31 09:34:20;;;;;;;41.30;22.10;;;;;;;1.52;71.91;99216.69;5096113;28;20107;-63
2021/01/31 09:36:45;;;;;;;33.72;20.30;;;;;;;1.53;71.24;99218.28;5097241;28;20319;-63
2021/01/31 09:39:11;;;;;;;59.83;26.35;;;;;;;1.48;72.46;99222.16;5097657;28;20068;-63
2021/01/31 09:41:37;;;;;;;48.20;24.30;;;;;;;1.47;72.53;99228.88;5097087;28;20046;-64
2021/01/31 09:44:08;;;;;;;41.55;21.05;;;;;;;1.53;71.70;99232.13;5096961;28;20024;-64
2021/01/31 09:46:35;;;;;;;37.25;20.08;;;;;;;1.64;70.53;99240.59;5097299;28;20044;-63
2021/01/31 09:49:15;;;;;;;36.65;18.02;;;;;;;1.62;70.27;99227.13;5098162;28;20099;-65
2021/01/31 09:51:42;;;;;;;34.42;18.70;;;;;;;1.58;70.58;99228.25;5092925;28;20028;-63
2021/01/31 09:54:30;;;;;;;33.13;18.63;;;;;;;1.67;69.71;99224.06;5097524;28;20107;-65
2021/01/31 09:57:02;;;;;;;30.35;15.95;;;;;;;1.62;68.71;99220.78;5094236;28;20028;-64
2021/01/31 09:59:34;;;;;;;36.38;16.35;;;;;;;1.58;69.41;99225.47;5097596;28;20083;-67
2021/01/31 10:02:06;;;;;;;40.08;18.85;;;;;;;1.60;68.94;99228.66;5096710;28;20031;-63
2021/01/31 10:04:33;;;;;;;45.13;19.95;;;;;;;1.59;68.86;99232.59;5097616;28;20418;-63
2021/01/31 10:07:32;;;;;;;35.03;17.48;;;;;;;1.52;69.38;99234.09;5097332;28;20030;-62
2021/01/31 10:09:58;;;;;;;38.50;20.35;;;;;;;1.57;69.07;99218.34;5093079;28;20039;-63
2021/01/31 10:12:30;;;;;;;38.97;22.15;;;;;;;1.58;69.74;99233.78;5102507;23;20426;-62
2021/01/31 10:15:03;;;;;;;32.33;17.50;;;;;;;1.57;69.79;99235.75;5036299;28;20025;-62
2021/01/31 10:17:28;;;;;;;35.97;18.83;;;;;;;1.59;69.82;99227.06;5050424;28;20421;-63
2021/01/31 10:20:29;;;;;;;49.20;25.95;;;;;;;1.59;70.54;99214.03;5054700;28;20028;-64
2021/01/31 10:23:17;;;;;;;39.63;18.25;;;;;;;1.66;69.65;99227.22;5049449;28;20425;-64
2021/01/31 10:26:06;;;;;;;35.72;18.60;;;;;;;1.66;69.66;99224.44;5053641;28;20407;-63
2021/01/31 10:28:37;;;;;;;38.58;20.02;;;;;;;1.72;68.35;99214.63;5051723;28;20029;-64
2021/01/31 10:31:04;;;;;;;54.00;29.90;;;;;;;1.71;68.97;99215.81;5033006;28;20021;-63
2021/01/31 10:33:42;;;;;;;35.65;16.75;;;;;;;1.71;68.57;99210.25;5048597;28;20116;-63
2021/01/31 10:36:26;;;;;;;32.85;17.70;;;;;;;1.67;69.59;99209.41;5049820;28;20021;-63
2021/01/31 10:38:55;;;;;;;31.30;16.80;;;;;;;1.72;69.44;99209.09;5043041;28;20021;-64
2021/01/31 10:41:21;;;;;;;31.70;15.88;;;;;;;1.81;68.23;99202.09;5053163;28;20025;-64
2021/01/31 10:43:58;;;;;;;37.30;17.77;;;;;;;1.79;69.28;99209.19;5050776;28;20301;-63
2021/01/31 10:46:23;;;;;;;34.22;17.13;;;;;;;1.82;69.42;99208.44;5051173;28;20032;-63
2021/01/31 10:48:49;;;;;;;34.78;18.23;;;;;;;1.84;69.14;99212.44;5034849;28;20017;-62
2021/01/31 10:51:14;;;;;;;32.33;17.67;;;;;;;1.89;68.20;99210.50;5053356;28;20017;-64
2021/01/31 10:53:40;;;;;;;40.90;18.55;;;;;;;1.95;68.56;99218.16;5051931;28;20350;-64
2021/01/31 10:56:06;;;;;;;52.72;18.88;;;;;;;1.97;67.76;99223.31;5054629;28;20025;-64
2021/01/31 10:58:32;;;;;;;33.25;17.30;;;;;;;1.98;67.52;99228.50;5054259;28;20053;-63
2021/01/31 11:00:57;;;;;;;37.25;18.88;;;;;;;1.96;67.96;99222.53;5054143;28;20135;-65
2021/01/31 11:03:22;;;;;;;32.10;17.27;;;;;;;2.02;68.14;99221.03;5050964;28;21306;-64
2021/01/31 11:05:48;;;;;;;35.78;19.50;;;;;;;2.08;67.67;99215.94;5051792;28;20030;-62
2021/01/31 11:08:13;;;;;;;34.17;18.38;;;;;;;2.14;67.36;99223.56;5041536;28;20025;-63
2021/01/31 11:10:38;;;;;;;34.10;17.30;;;;;;;2.13;67.30;99218.41;5037184;28;20384;-63
2021/01/31 11:13:12;;;;;;;36.20;18.02;;;;;;;2.11;67.98;99204.13;5036273;28;20443;-62
2021/01/31 11:15:38;;;;;;;37.00;18.90;;;;;;;2.11;66.46;99210.47;5038841;28;20029;-63
2021/01/31 11:18:04;;;;;;;33.30;16.58;;;;;;;2.17;66.85;99220.03;5039433;28;20039;-62
2021/01/31 11:20:29;;;;;;;32.38;17.02;;;;;;;2.16;65.76;99204.59;5045559;28;20017;-64
2021/01/31 11:22:54;;;;;;;36.42;16.95;;;;;;;2.16;66.29;99206.56;5039845;28;20079;-61
2021/01/31 11:25:20;;;;;;;32.75;19.30;;;;;;;2.12;66.47;99206.50;5036157;28;20045;-62
2021/01/31 11:27:45;;;;;;;41.83;21.40;;;;;;;2.12;67.05;99200.97;5035564;28;20405;-63
2021/01/31 11:30:11;;;;;;;32.80;18.73;;;;;;;2.18;66.95;99205.00;5035261;28;20037;-63
2021/01/31 11:32:36;;;;;;;31.30;17.33;;;;;;;2.24;65.56;99202.72;5035334;28;20029;-62
2021/01/31 11:35:02;;;;;;;32.63;17.02;;;;;;;2.25;65.60;99200.75;5035364;28;20060;-62
2021/01/31 11:37:27;;;;;;;35.58;17.90;;;;;;;2.25;65.46;99197.97;5027797;28;20034;-62
2021/01/31 11:39:53;;;;;;;33.53;17.40;;;;;;;2.22;65.41;99201.50;5031761;28;20018;-63
2021/01/31 11:42:18;;;;;;;33.35;18.58;;;;;;;2.25;65.94;99209.06;5035745;28;20310;-63
2021/01/31 11:44:44;;;;;;;31.63;17.17;;;;;;;2.29;65.18;99202.41;5035648;28;20017;-62
2021/01/31 11:47:09;;;;;;;32.35;16.92;;;;;;;2.35;64.57;99213.94;5035884;28;20368;-64
2021/01/31 11:49:35;;;;;;;37.55;19.45;;;;;;;2.30;65.56;99217.84;5035527;28;20036;-63